AirNav   Pilot Hours Calculator
 
 963 users online  

PS95 Mazzuca Heliport
Pottsville, Pennsylvania, USA

GOING TO POTTSVILLE?


FAA INFORMATION EFFECTIVE 05 DECEMBER 2019

Location

FAA Identifier: PS95
Lat/Long: 40-41-10.3230N 076-12-36.7990W
40-41.172050N 076-12.613317W
40.6862008,-76.2102219
(estimated)
Elevation: 810 ft. / 247 m (estimated)
Variation: 11W (1985)
From city: 2 miles SE of POTTSVILLE, PA
Time zone: UTC -5 (UTC -4 during Daylight Saving Time)
Zip code: 17901

Heliport Operations

Heliport use: Private use. Permission required prior to landing
Activation date: 07/1986
Control tower: no
ARTCC: NEW YORK CENTER
FSS: WILLIAMSPORT FLIGHT SERVICE STATION
Attendance: UNATNDD
Segmented circle: no

Heliport Communications

WX AWOS-3 at ZER (8 nm W): 127.575 (570-544-2778)
WX AWOS-3 at N79 (18 nm NW): 119.175 (570-672-0389)

Nearby radio navigation aids

VOR radial/distance  VOR name  Freq  Var
RAVr077/19.4RAVINE VORTAC114.6011W
ETXr294/24.8EAST TEXAS VOR/DME110.2009W
MIPr143/28.9MILTON VORTAC109.2009W
SEGr110/31.3SELINSGROVE VOR/DME110.4008W
LRPr015/34.2LANCASTER VOR/DME117.3009W
FJCr276/34.4ALLENTOWN VORTAC117.5010W

 
NDB name  Hdg/Dist  Freq  Var  ID
BELLGROVE056/21.732810WBZJ -... --.. .---

Heliport Services

Runway Information

Helipad H1

Dimensions: 25 x 25 ft. / 8 x 8 m
Surface: asphalt
Operational restrictions: FATO 60 FT SQUARE
Traffic pattern: leftleft

Heliport Ownership and Management from official FAA records

Ownership: Privately-owned
Owner: JOSEPH MAZZUCA
510 N. 14TH ST , P.O. BOX 443
POTTSVILLE, PA 17901
Phone (570) 527-0576
ALTERNATE PHONE 570-573-4406
Manager: JOSEPH MAZZUCA
510 N. 14TH ST, P.O. BOX 443
POTTSVILLE, PA 17901
Phone (570) 527-0576

Heliport Operational Statistics

Aircraft based on the field: 1
Helicopters: 1
    

Additional Remarks

FOR CD CTC READING ATCT AT 610-478-9562; WHEN CLSD CTC HARRISBURG APCH AT 800-932-0712.

Instrument Procedures

There are no published instrument procedures at PS95.

Some nearby airports with instrument procedures:

KZER - Schuylkill County/Joe Zerbey Airport (8 nm W)
74N - Bendigo Airport (18 nm SW)
N79 - Northumberland County Airport (18 nm NW)
KHZL - Hazleton Regional Airport (21 nm NE)
9D4 - Deck Airport (21 nm S)
 
Loc | Ops | Rwys | IFR | FBO | Links
Com | Nav | Svcs | Stats | Notes
Area around PS95 (Mazzuca Heliport)
 
Road maps at: MapQuest Bing Google
 
Aerial photo
No photo
 
Sectional chart

 
Airport distance calculator
Flying to Mazzuca Heliport? Find the distance to fly.

From to PS95

Sunrise and sunset
Times for 12-Dec-2019
 Local
(UTC-5)
 Zulu
(UTC)
Morning civil twilight06:5011:50
Sunrise07:2012:20
Sunset16:3721:37
Evening civil twilight17:0822:08

Current date and time
Zulu (UTC)  12-Dec-2019 23:53:12
Local (UTC-5)  12-Dec-2019 18:53:12
 
METAR
KHZL 
21nm NE 
122336Z AUTO 11004KT 10SM CLR M02/M11 A3056 RMK AO2
K22N 
22nm E 
122336Z AUTO 00000KT 10SM CLR M02/M05 A3063 RMK AO2
KRDG 
22nm SE 
122254Z 17005KT 10SM CLR 00/M08 A3063 RMK AO2 SLP381 T00001083
KMUI 
23nm SW 
122256Z 00000KT 10SM BKN250 M02/M08 A3062 RMK AO2A SLP379 T10181083
KSEG 
31nm W 
122253Z AUTO 15007KT 10SM CLR 00/M09 A3060 RMK AO2 SLP367 T00001094
KXLL 
34nm E 
122335Z AUTO 12005KT 10SM CLR 00/M08 A3065 RMK AO2
KLNS 
34nm S 
122253Z 17006KT 10SM CLR 00/M09 A3064 RMK AO2 SLP381 T00001094
KABE 
35nm E 
122251Z 13003KT 10SM CLR 02/M11 A3064 RMK AO2 SLP382 T00171111
KMDT 
39nm SW 
122256Z 13007KT 10SM OVC200 01/M07 A3062 RMK AO2 SLP372 T00111072
KPTW 
41nm SE 
122254Z AUTO 00000KT 10SM CLR M02/M10 A3067 RMK AO2 SLP388 T10171100
TAF
KRDG 
22nm SE 
121721Z 1218/1318 VRB03KT P6SM FEW250 FM130000 VRB02KT P6SM BKN200 FM130800 VRB03KT P6SM OVC040 FM131100 VRB03KT P6SM OVC025 FM131500 VRB03KT P6SM VCSH OVC015
KMUI 
23nm SW 
121900Z 1219/1401 14006KT 9999 BKN250 QNH3058INS BECMG 1304/1305 14006KT 9999 BKN015 OVC025 QNH3043INS TEMPO 1309/1312 -FZDZ OVC009 660004 BECMG 1311/1312 10006KT 8000 -RA BR OVC009 QNH3029INS BECMG 1316/1317 06006KT 4800 -RA BR OVC006 650808 QNH3006INS BECMG 1323/1324 08006KT 3200 -RA BR OVC005 QNH3002INS TX01/1319Z TNM03/1302Z LAST NO AMDS AFT 1305 NEXT 1311
NOTAMs
Click for the latest NOTAMs
NOTAMs are issued by the DoD/FAA and will open in a separate window not controlled by AirNav.

 

 
 

Would you like to see your business listed on this page?

 If your business provides an interesting product or service to pilots, flight crews, aircraft, or users of the Mazzuca Heliport, you should consider listing it here.  To start the listing process, click on the button below
 
Add a business
 

Other Pages about Mazzuca Heliport

Update a link
 
Copyright © AirNav, LLC. All rights reserved. Privacy Policy  Contact